Time;durP1;ratioP1;P1;durP2;ratioP2;P2;SDS_P1;SDS_P2;PMS_P1;PMS_P2;Temp;Humidity;BMP_temperature;BMP_pressure;BME280_temperature;BME280_humidity;BME280_pressure;Samples;Min_cycle;Max_cycle;Signal;HPM_P1;HPM_P2
2021/11/29 00:03:07;;;;;;;40.53;22.48;;;;;;;-0.71;100.00;97629.94;4885441;29;20061;-76
2021/11/29 00:05:52;;;;;;;38.17;21.10;;;;;;;-0.77;100.00;97632.59;4897881;29;20048;-76
2021/11/29 00:08:36;;;;;;;35.42;20.80;;;;;;;-0.82;100.00;97616.38;4885257;29;20129;-76
2021/11/29 00:11:20;;;;;;;36.85;22.10;;;;;;;-0.72;100.00;97630.81;4885381;29;20056;-76
2021/11/29 00:14:05;;;;;;;36.15;21.40;;;;;;;-0.77;100.00;97623.16;4897872;29;20458;-77
2021/11/29 00:16:49;;;;;;;37.30;22.10;;;;;;;-0.75;100.00;97626.56;4885063;29;20045;-76
2021/11/29 00:19:34;;;;;;;33.97;20.20;;;;;;;-0.75;100.00;97629.16;4885141;29;20439;-76
2021/11/29 00:22:19;;;;;;;38.15;22.83;;;;;;;-0.75;100.00;97634.28;4884184;29;20108;-76
2021/11/29 00:25:04;;;;;;;36.80;21.30;;;;;;;-0.77;100.00;97628.31;4897504;29;20136;-76
2021/11/29 00:27:49;;;;;;;40.55;23.75;;;;;;;-0.83;100.00;97628.38;4897425;29;20044;-76
2021/11/29 00:30:33;;;;;;;42.03;23.75;;;;;;;-0.75;100.00;97631.72;4897607;29;20041;-76
2021/11/29 00:33:19;;;;;;;44.88;25.70;;;;;;;-0.83;100.00;97624.97;4897488;29;20119;-76
2021/11/29 00:36:04;;;;;;;43.85;24.50;;;;;;;-0.77;100.00;97642.88;4897191;29;20041;-76
2021/11/29 00:38:49;;;;;;;41.30;21.83;;;;;;;-0.76;100.00;97655.72;4871064;29;20041;-76
2021/11/29 00:41:33;;;;;;;40.20;21.17;;;;;;;-0.81;100.00;97648.94;4897462;29;20049;-76
2021/11/29 00:44:18;;;;;;;37.78;22.10;;;;;;;-0.79;100.00;97644.63;4897149;29;20059;-76
2021/11/29 00:47:02;;;;;;;40.65;23.10;;;;;;;-0.76;100.00;97644.56;4884731;29;20049;-76
2021/11/29 00:49:46;;;;;;;35.40;21.25;;;;;;;-0.93;100.00;97631.13;4884487;29;20112;-76
2021/11/29 00:52:31;;;;;;;43.15;23.27;;;;;;;-0.77;100.00;97648.88;4884885;29;20041;-76
2021/11/29 00:55:17;;;;;;;41.05;22.20;;;;;;;-0.80;100.00;97650.63;4870911;29;20135;-76
2021/11/29 00:58:03;;;;;;;39.55;20.88;;;;;;;-0.77;100.00;97664.31;4883958;29;20450;-76
2021/11/29 01:00:48;;;;;;;45.60;24.75;;;;;;;-0.82;100.00;97657.50;4884422;29;20060;-76
2021/11/29 01:03:32;;;;;;;44.70;25.55;;;;;;;-0.77;100.00;97653.16;4883078;29;20049;-76
2021/11/29 01:06:17;;;;;;;47.75;24.38;;;;;;;-0.85;100.00;97657.56;4884420;29;20053;-76
2021/11/29 01:09:02;;;;;;;50.40;24.13;;;;;;;-0.78;100.00;97654.03;4884185;29;20045;-76
2021/11/29 01:11:46;;;;;;;61.75;28.70;;;;;;;-0.74;100.00;97648.84;4883576;29;20056;-76
2021/11/29 01:14:31;;;;;;;66.65;29.73;;;;;;;-0.96;100.00;97621.72;4896657;29;20128;-76
2021/11/29 01:17:15;;;;;;;61.47;28.20;;;;;;;-0.88;100.00;97640.44;4884290;29;20045;-75
2021/11/29 01:19:59;;;;;;;62.97;28.75;;;;;;;-0.79;100.00;97644.63;4883428;29;20053;-75
2021/11/29 01:22:44;;;;;;;67.28;30.50;;;;;;;-0.78;100.00;97641.16;4896502;29;20342;-76
2021/11/29 01:25:29;;;;;;;73.80;31.45;;;;;;;-0.79;100.00;97634.34;4896580;29;20089;-76
2021/11/29 01:28:13;;;;;;;66.43;30.17;;;;;;;-0.82;100.00;97642.09;4883294;29;20411;-76
2021/11/29 01:30:58;;;;;;;70.25;31.77;;;;;;;-0.80;100.00;97640.34;4896513;29;20045;-76
2021/11/29 01:33:42;;;;;;;71.63;31.15;;;;;;;-0.80;100.00;97637.78;4896478;29;20060;-75
2021/11/29 01:36:26;;;;;;;77.40;31.92;;;;;;;-0.79;100.00;97640.31;4896488;29;20052;-76
2021/11/29 01:39:12;;;;;;;76.68;33.45;;;;;;;-0.77;100.00;97630.03;4883704;29;20132;-75
2021/11/29 01:41:56;;;;;;;79.35;30.80;;;;;;;-0.85;100.00;97619.84;4896396;29;20067;-75
2021/11/29 01:44:40;;;;;;;77.70;31.10;;;;;;;-0.75;100.00;97621.44;4883678;29;20045;-75
2021/11/29 01:47:25;;;;;;;91.70;32.78;;;;;;;-0.83;100.00;97625.81;4883663;29;20121;-75
2021/11/29 01:50:10;;;;;;;82.40;32.90;;;;;;;-0.78;100.00;97612.88;4895874;29;20137;-75
2021/11/29 01:52:54;;;;;;;78.78;33.63;;;;;;;-0.75;100.00;97620.56;4883554;29;20059;-75
2021/11/29 01:55:41;;;;;;;74.82;31.98;;;;;;;-0.84;100.00;97605.28;4896140;29;20442;-75
2021/11/29 01:58:32;;;;;;;91.57;33.03;;;;;;;-0.84;100.00;97624.13;4883027;29;20057;-76
2021/11/29 02:01:24;;;;;;;77.57;32.00;;;;;;;-0.80;100.00;97632.66;4882752;29;20041;-76
2021/11/29 02:04:11;;;;;;;75.15;30.55;;;;;;;-0.68;100.00;97635.03;4883549;29;20045;-76
2021/11/29 02:06:56;;;;;;;87.80;30.77;;;;;;;-0.76;100.00;97644.56;4883386;29;20049;-76
2021/11/29 02:09:40;;;;;;;109.63;33.25;;;;;;;-0.91;100.00;97626.78;4882660;29;20462;-76
2021/11/29 02:12:24;;;;;;;91.70;31.60;;;;;;;-0.85;100.00;97624.97;4895796;29;20041;-76
2021/11/29 02:15:12;;;;;;;97.55;33.78;;;;;;;-0.84;100.00;97615.56;4883051;29;20044;-76
2021/11/29 02:17:57;;;;;;;115.10;33.60;;;;;;;-0.83;100.00;97622.41;4895840;29;20362;-76
2021/11/29 02:20:58;;;;;;;94.28;31.05;;;;;;;-0.85;100.00;97613.84;4883476;29;20338;-76
2021/11/29 02:23:52;;;;;;;88.70;33.28;;;;;;;-0.85;100.00;97630.13;4895523;29;20521;-76
2021/11/29 02:26:38;;;;;;;93.22;34.30;;;;;;;-0.86;100.00;97627.59;4895482;29;20487;-76
2021/11/29 02:29:22;;;;;;;76.93;34.00;;;;;;;-0.84;100.00;97642.13;4883394;29;20049;-76
2021/11/29 02:32:07;;;;;;;87.28;32.38;;;;;;;-0.77;100.00;97643.72;4882186;29;20069;-76
2021/11/29 02:34:52;;;;;;;82.00;32.95;;;;;;;-0.85;100.00;97637.84;4895360;29;20418;-76
2021/11/29 02:37:36;;;;;;;100.88;34.20;;;;;;;-0.83;100.00;97641.25;4882892;29;20327;-75
2021/11/29 02:40:21;;;;;;;82.20;32.75;;;;;;;-0.78;100.00;97652.31;4895450;29;20049;-76
2021/11/29 02:43:05;;;;;;;91.43;31.60;;;;;;;-0.76;100.00;97660.00;4882851;29;20045;-75
2021/11/29 02:45:50;;;;;;;93.57;34.17;;;;;;;-0.85;100.00;97665.25;4895175;29;20081;-75
2021/11/29 02:48:46;;;;;;;71.13;32.20;;;;;;;-0.79;100.00;97676.31;4882536;29;20068;-76
2021/11/29 02:51:35;;;;;;;102.72;35.40;;;;;;;-0.82;100.00;97680.66;4881895;29;20045;-75
2021/11/29 02:54:27;;;;;;;89.20;35.22;;;;;;;-0.74;100.00;97676.28;4882783;29;20141;-76
2021/11/29 02:57:16;;;;;;;72.30;31.75;;;;;;;-0.82;100.00;97678.94;4882368;29;20383;-75
2021/11/29 03:00:02;;;;;;;74.70;35.45;;;;;;;-0.79;100.00;97676.31;4881524;29;20064;-75
2021/11/29 03:03:02;;;;;;;80.95;36.40;;;;;;;-0.84;100.00;97669.56;4894863;29;20053;-75
2021/11/29 03:05:46;;;;;;;70.75;31.38;;;;;;;-0.79;100.00;97672.91;4894770;29;20069;-75
2021/11/29 03:08:31;;;;;;;68.38;30.90;;;;;;;-0.78;100.00;97672.91;4882395;29;20354;-75
2021/11/29 03:11:17;;;;;;;74.97;32.28;;;;;;;-0.77;100.00;97678.88;4881789;29;20041;-75
2021/11/29 03:14:03;;;;;;;71.85;31.77;;;;;;;-0.78;100.00;97678.03;4894632;29;20045;-75
2021/11/29 03:16:48;;;;;;;67.35;30.55;;;;;;;-0.77;100.00;97681.44;4881450;29;20069;-75
2021/11/29 03:19:35;;;;;;;67.63;29.75;;;;;;;-0.77;100.00;97681.44;4881448;29;20109;-75
2021/11/29 03:22:20;;;;;;;69.47;31.48;;;;;;;-0.81;100.00;97674.66;4894779;29;20057;-75
2021/11/29 03:25:05;;;;;;;59.35;28.67;;;;;;;-0.79;100.00;97675.47;4881105;29;20446;-75
2021/11/29 03:27:49;;;;;;;55.50;27.80;;;;;;;-0.77;100.00;97678.88;4881618;29;20049;-75
2021/11/29 03:30:34;;;;;;;65.63;31.50;;;;;;;-0.79;100.00;97675.47;4881548;29;20045;-75
2021/11/29 03:33:19;;;;;;;57.55;28.25;;;;;;;-0.78;100.00;97679.72;4882025;29;20119;-75
2021/11/29 03:36:04;;;;;;;61.13;30.02;;;;;;;-0.85;100.00;97678.97;4894387;29;20049;-75
2021/11/29 03:38:48;;;;;;;56.33;29.20;;;;;;;-0.77;100.00;97684.03;4881998;29;20055;-75
2021/11/29 03:41:32;;;;;;;56.60;28.23;;;;;;;-0.77;100.00;97681.44;4894592;29;20049;-75
2021/11/29 03:44:18;;;;;;;58.55;29.25;;;;;;;-0.78;100.00;97677.16;4882237;29;20057;-75
2021/11/29 03:47:05;;;;;;;60.17;30.55;;;;;;;-0.78;100.00;97669.44;4881253;29;20053;-75
2021/11/29 03:49:49;;;;;;;54.75;28.10;;;;;;;-0.79;100.00;97662.63;4881952;29;20076;-75
2021/11/29 03:52:33;;;;;;;53.50;28.33;;;;;;;-0.83;100.00;97666.94;4894310;29;20049;-75
2021/11/29 03:55:17;;;;;;;53.22;27.25;;;;;;;-0.78;100.00;97672.00;4894263;29;20163;-75
2021/11/29 03:58:02;;;;;;;59.42;32.00;;;;;;;-0.89;100.00;97672.16;4881786;29;20053;-75
2021/11/29 04:00:46;;;;;;;56.80;30.02;;;;;;;-0.85;100.00;97666.09;4881831;29;20057;-75
2021/11/29 04:03:32;;;;;;;66.53;33.70;;;;;;;-0.74;100.00;97673.69;4881991;29;20049;-75
2021/11/29 04:06:16;;;;;;;63.15;32.28;;;;;;;-0.79;100.00;97672.91;4894209;29;20431;-75
2021/11/29 04:09:03;;;;;;;56.22;28.73;;;;;;;-0.83;100.00;97668.69;4894188;29;20344;-75
2021/11/29 04:11:48;;;;;;;66.40;33.47;;;;;;;-0.76;100.00;97672.84;4894149;29;20055;-75
2021/11/29 04:14:32;;;;;;;86.50;46.92;;;;;;;-0.76;100.00;97675.44;4894298;29;20045;-75
2021/11/29 04:17:17;;;;;;;100.05;51.13;;;;;;;-0.79;100.00;97675.47;4882185;29;20042;-75
2021/11/29 04:20:03;;;;;;;66.43;35.55;;;;;;;-0.75;100.00;97672.84;4894090;29;20052;-75
2021/11/29 04:22:48;;;;;;;61.67;32.35;;;;;;;-0.79;100.00;97676.31;4881916;29;20128;-75
2021/11/29 04:25:40;;;;;;;67.40;39.38;;;;;;;-0.79;100.00;97678.03;4881621;29;20393;-75
2021/11/29 04:28:25;;;;;;;66.03;36.47;;;;;;;-0.74;100.00;97683.97;4881650;29;20053;-75
2021/11/29 04:31:09;;;;;;;63.38;31.45;;;;;;;-0.70;100.00;97685.63;4881526;29;20073;-75
2021/11/29 04:33:54;;;;;;;62.30;32.10;;;;;;;-0.77;100.00;97681.44;4894123;29;20049;-75
2021/11/29 04:36:38;;;;;;;51.95;27.88;;;;;;;-0.71;100.00;97689.09;4881618;29;20045;-75
2021/11/29 04:39:22;;;;;;;47.17;24.02;;;;;;;-0.77;100.00;97674.59;4882629;29;20045;-75
2021/11/29 04:42:07;;;;;;;49.78;25.85;;;;;;;-0.77;100.00;97668.59;4884743;29;20049;-75
2021/11/29 04:44:52;;;;;;;49.22;24.52;;;;;;;-0.83;100.00;97669.53;4884713;29;20045;-75
2021/11/29 04:47:37;;;;;;;43.15;23.17;;;;;;;-0.72;100.00;97677.06;4884825;29;20049;-75
2021/11/29 04:50:22;;;;;;;44.95;22.92;;;;;;;-0.75;100.00;97677.13;4897017;29;20061;-75
2021/11/29 04:53:06;;;;;;;45.42;24.58;;;;;;;-0.78;100.00;97677.16;4884591;29;20041;-75
2021/11/29 04:55:51;;;;;;;49.85;26.48;;;;;;;-0.83;100.00;97671.25;4884041;29;20067;-75
2021/11/29 04:58:35;;;;;;;49.83;23.02;;;;;;;-0.83;100.00;97679.81;4884516;29;20431;-75
2021/11/29 05:01:19;;;;;;;50.25;25.60;;;;;;;-0.80;100.00;97676.34;4884469;29;20053;-75
2021/11/29 05:04:04;;;;;;;42.03;23.52;;;;;;;-0.78;100.00;97684.88;4884398;29;20439;-75
2021/11/29 05:06:48;;;;;;;38.45;20.50;;;;;;;-0.78;100.00;97682.31;4896933;29;20053;-75
2021/11/29 05:09:32;;;;;;;40.45;21.73;;;;;;;-0.79;100.00;97678.88;4870612;29;20044;-76
2021/11/29 05:12:16;;;;;;;47.50;24.25;;;;;;;-0.82;100.00;97684.06;4883649;29;20331;-75
2021/11/29 05:15:03;;;;;;;44.50;22.27;;;;;;;-0.78;100.00;97685.75;4896617;29;20122;-75
2021/11/29 05:17:47;;;;;;;46.17;22.67;;;;;;;-0.77;100.00;97678.88;4884201;29;20124;-75
2021/11/29 05:20:32;;;;;;;53.10;22.95;;;;;;;-0.72;100.00;97695.06;4896825;29;20055;-76
2021/11/29 05:23:17;;;;;;;38.22;18.65;;;;;;;-0.74;100.00;97689.97;4884093;29;20056;-75
2021/11/29 05:26:01;;;;;;;59.72;26.40;;;;;;;-0.74;100.00;97689.13;4883365;29;20053;-76
2021/11/29 05:28:47;;;;;;;59.47;26.95;;;;;;;-0.74;100.00;97704.56;4884055;29;20451;-76
2021/11/29 05:31:32;;;;;;;56.67;23.20;;;;;;;-0.77;100.00;97700.28;4883248;29;20049;-75
2021/11/29 05:34:16;;;;;;;35.45;18.60;;;;;;;-0.81;100.00;97700.38;4883983;29;20052;-76
2021/11/29 05:37:01;;;;;;;46.92;22.40;;;;;;;-0.77;100.00;97705.44;4883060;29;20117;-76
2021/11/29 05:39:45;;;;;;;36.53;18.60;;;;;;;-0.75;100.00;97710.53;4883971;29;20045;-75
2021/11/29 05:42:30;;;;;;;57.35;23.15;;;;;;;-0.74;100.00;97713.09;4896213;29;20053;-75
2021/11/29 05:45:15;;;;;;;38.50;19.17;;;;;;;-0.72;100.00;97716.50;4910355;29;20057;-75
2021/11/29 05:47:59;;;;;;;33.97;17.42;;;;;;;-0.80;100.00;97720.91;4868207;29;20060;-75
2021/11/29 05:50:43;;;;;;;38.58;17.52;;;;;;;-0.74;100.00;97725.13;4882255;29;20391;-77
2021/11/29 05:53:28;;;;;;;74.13;25.98;;;;;;;-0.76;100.00;97732.84;4883558;29;20040;-77
2021/11/29 05:56:13;;;;;;;44.20;18.15;;;;;;;-0.74;100.00;97731.09;4883374;29;20454;-77
2021/11/29 05:58:57;;;;;;;46.42;19.65;;;;;;;-0.68;100.00;97734.44;4894886;29;20052;-77
2021/11/29 06:01:41;;;;;;;27.05;14.88;;;;;;;-0.76;100.00;97739.69;4895989;29;20041;-77
2021/11/29 06:04:25;;;;;;;22.58;12.75;;;;;;;-0.77;100.00;97733.72;4894843;29;20045;-77
2021/11/29 06:07:09;;;;;;;26.73;12.48;;;;;;;-0.78;100.00;97728.56;4893975;29;20053;-77
2021/11/29 06:09:54;;;;;;;29.80;15.45;;;;;;;-0.79;100.00;97735.44;4893966;29;20056;-77
2021/11/29 06:12:39;;;;;;;32.58;16.75;;;;;;;-0.76;100.00;97732.84;4881600;29;20045;-77
2021/11/29 06:15:23;;;;;;;33.45;15.77;;;;;;;-0.75;100.00;97741.38;4881374;29;20052;-77
2021/11/29 06:18:08;;;;;;;40.97;19.50;;;;;;;-0.71;100.00;97741.34;4881535;29;20132;-77
2021/11/29 06:20:53;;;;;;;33.30;18.10;;;;;;;-0.84;100.00;97741.53;4894305;29;20415;-77
2021/11/29 06:23:38;;;;;;;32.85;16.58;;;;;;;-0.77;100.00;97743.16;4881112;29;20079;-77
2021/11/29 06:26:22;;;;;;;27.88;15.77;;;;;;;-0.71;100.00;97756.78;4894731;29;20349;-77
2021/11/29 06:29:06;;;;;;;70.38;27.15;;;;;;;-0.71;100.00;97754.22;4883030;29;20116;-77
2021/11/29 06:31:51;;;;;;;57.88;23.10;;;;;;;-0.73;100.00;97763.66;4882964;29;20049;-77
2021/11/29 06:34:36;;;;;;;107.70;34.55;;;;;;;-0.68;100.00;97752.44;4895587;29;20041;-77
2021/11/29 06:37:25;;;;;;;67.38;30.67;;;;;;;-0.75;100.00;97767.09;4895255;29;20362;-77
2021/11/29 06:40:10;;;;;;;53.20;22.52;;;;;;;-0.73;100.00;97758.50;4882222;29;20085;-77
2021/11/29 06:42:55;;;;;;;39.17;22.33;;;;;;;-0.74;100.00;97769.66;4882681;29;20044;-76
2021/11/29 06:45:39;;;;;;;32.22;19.90;;;;;;;-0.69;100.00;97773.91;4895177;29;20132;-77
2021/11/29 06:48:23;;;;;;;33.40;18.25;;;;;;;-0.70;100.00;97773.06;4895315;29;20052;-76
2021/11/29 06:51:08;;;;;;;39.88;20.08;;;;;;;-0.71;100.00;97772.19;4881891;29;20056;-77
2021/11/29 06:53:53;;;;;;;33.92;17.50;;;;;;;-0.73;100.00;97783.38;4882539;29;20117;-76
2021/11/29 06:56:37;;;;;;;45.25;23.10;;;;;;;-0.65;100.00;97778.13;4895085;29;20045;-76
2021/11/29 06:59:21;;;;;;;42.25;19.80;;;;;;;-0.70;100.00;97791.03;4894748;29;20391;-76
2021/11/29 07:02:06;;;;;;;35.47;17.58;;;;;;;-0.69;100.00;97791.91;4880044;29;20049;-76
2021/11/29 07:04:50;;;;;;;34.47;18.33;;;;;;;-0.64;100.00;97806.41;4878469;29;20307;-76
2021/11/29 07:07:35;;;;;;;30.88;16.73;;;;;;;-0.66;100.00;97802.16;4879268;29;20047;-76
2021/11/29 07:10:20;;;;;;;33.40;18.17;;;;;;;-0.61;100.00;97811.50;4884401;29;20040;-76
2021/11/29 07:13:04;;;;;;;22.60;14.98;;;;;;;-0.59;100.00;97804.59;4880485;29;20045;-76
2021/11/29 07:15:49;;;;;;;29.73;15.73;;;;;;;-0.59;100.00;97799.47;4881215;29;20358;-76
2021/11/29 07:18:33;;;;;;;31.27;18.38;;;;;;;-0.69;100.00;97809.88;4894020;29;20049;-76
2021/11/29 07:21:18;;;;;;;36.13;17.23;;;;;;;-0.64;100.00;97803.84;4895772;29;20040;-76
2021/11/29 07:24:02;;;;;;;30.08;15.55;;;;;;;-0.64;100.00;97811.53;4898122;29;20123;-76
2021/11/29 07:26:46;;;;;;;26.20;14.20;;;;;;;-0.62;100.00;97806.38;4898086;29;20053;-76
2021/11/29 07:29:30;;;;;;;33.10;16.73;;;;;;;-0.72;100.00;97788.47;4885322;29;20060;-76
2021/11/29 07:32:15;;;;;;;25.88;15.07;;;;;;;-0.53;100.00;97809.69;4899094;29;20044;-76
2021/11/29 07:34:59;;;;;;;24.10;14.60;;;;;;;-0.60;100.00;97808.06;4893422;29;20060;-76
2021/11/29 07:37:43;;;;;;;21.73;13.18;;;;;;;-0.61;100.00;97810.66;4899647;29;20063;-77
2021/11/29 07:40:28;;;;;;;26.23;14.65;;;;;;;-0.72;100.00;97798.75;4899512;29;20375;-76
2021/11/29 07:43:13;;;;;;;20.38;13.27;;;;;;;-0.55;100.00;97821.72;4885463;29;20052;-76
2021/11/29 07:45:57;;;;;;;29.00;15.32;;;;;;;-0.49;100.00;97819.09;4899902;29;20059;-76
2021/11/29 07:48:42;;;;;;;36.88;17.02;;;;;;;-0.61;100.00;97820.94;4899926;29;20061;-77
2021/11/29 07:51:27;;;;;;;20.63;12.48;;;;;;;-0.64;100.00;97810.69;4886110;29;20053;-76
2021/11/29 07:54:12;;;;;;;48.55;18.08;;;;;;;-0.51;100.00;97825.09;4900355;29;20497;-76
2021/11/29 07:56:56;;;;;;;21.15;13.02;;;;;;;-0.49;100.00;97820.78;4900442;29;20075;-76
2021/11/29 07:59:43;;;;;;;40.88;16.25;;;;;;;-0.45;100.00;97832.75;4900508;29;20048;-76
2021/11/29 08:02:27;;;;;;;36.35;15.93;;;;;;;-0.49;100.00;97838.78;4899812;29;20132;-76
2021/11/29 08:05:11;;;;;;;38.60;16.48;;;;;;;-0.50;100.00;97840.50;4899817;29;20048;-76
2021/11/29 08:07:56;;;;;;;25.23;12.70;;;;;;;-0.49;100.00;97843.94;4899811;29;20127;-76
2021/11/29 08:10:41;;;;;;;30.92;13.95;;;;;;;-0.47;100.00;97855.06;4900542;29;20044;-76
2021/11/29 08:13:26;;;;;;;32.70;14.85;;;;;;;-0.51;100.00;97854.25;4914172;29;20096;-76
2021/11/29 08:16:10;;;;;;;24.92;13.60;;;;;;;-0.45;100.00;97861.06;4903930;29;20048;-76
2021/11/29 08:18:55;;;;;;;58.05;21.88;;;;;;;-0.48;100.00;97864.50;4903320;29;20430;-76
2021/11/29 08:21:39;;;;;;;32.92;16.00;;;;;;;-0.43;100.00;97867.00;4904116;29;20171;-76
2021/11/29 08:24:24;;;;;;;29.58;15.85;;;;;;;-0.46;100.00;97872.19;4903850;29;20048;-77
2021/11/29 08:27:10;;;;;;;41.85;21.60;;;;;;;-0.51;100.00;97861.97;4903082;29;20111;-76
2021/11/29 08:29:54;;;;;;;47.17;22.70;;;;;;;-0.42;100.00;97884.16;4903126;29;20067;-76
2021/11/29 08:32:41;;;;;;;66.80;26.85;;;;;;;-0.38;100.00;97884.97;4903739;29;20048;-76
2021/11/29 08:35:25;;;;;;;50.78;29.27;;;;;;;-0.44;100.00;97879.91;4903057;29;20044;-77
2021/11/29 08:38:10;;;;;;;54.80;39.30;;;;;;;-0.50;100.00;97894.53;4903125;29;20135;-76
2021/11/29 08:40:54;;;;;;;64.18;38.28;;;;;;;-0.79;100.00;97835.69;4902913;29;20045;-76
2021/11/29 08:43:39;;;;;;;60.35;33.63;;;;;;;-0.45;100.00;97883.34;4903770;29;20040;-77
2021/11/29 08:46:23;;;;;;;52.85;24.10;;;;;;;-0.40;100.00;97899.56;4903059;29;20049;-77
2021/11/29 08:49:07;;;;;;;102.53;40.75;;;;;;;-0.43;100.00;97892.72;4902540;29;20061;-74
2021/11/29 08:51:52;;;;;;;102.25;45.05;;;;;;;-0.36;100.00;97896.94;4902868;29;20047;-75
2021/11/29 08:54:40;;;;;;;109.32;50.55;;;;;;;-0.36;100.00;97896.09;4902778;29;20430;-74
2021/11/29 08:57:24;;;;;;;87.53;36.45;;;;;;;-0.39;100.00;97890.97;4902676;29;20044;-74
2021/11/29 09:00:12;;;;;;;81.63;36.35;;;;;;;-0.33;100.00;97907.19;4903232;29;20059;-74
2021/11/29 09:02:58;;;;;;;149.75;54.85;;;;;;;-0.25;100.00;97907.13;4915745;29;20041;-75
2021/11/29 09:05:45;;;;;;;109.43;47.05;;;;;;;-0.21;100.00;97908.78;4889430;29;20052;-74
2021/11/29 09:08:31;;;;;;;158.65;56.90;;;;;;;-0.24;100.00;97906.22;4903269;29;20048;-74
2021/11/29 09:11:16;;;;;;;246.18;92.57;;;;;;;-0.18;100.00;97902.75;4903146;29;20171;-76
2021/11/29 09:14:00;;;;;;;79.53;33.60;;;;;;;-0.25;100.00;97900.25;4903115;29;20045;-76
2021/11/29 09:16:44;;;;;;;67.65;33.15;;;;;;;-0.18;100.00;97908.75;4902230;29;20049;-76
2021/11/29 09:19:29;;;;;;;107.95;42.05;;;;;;;-0.21;100.00;97915.66;4915635;29;20048;-76
2021/11/29 09:22:13;;;;;;;49.15;23.67;;;;;;;-0.17;100.00;97910.44;4902156;29;20052;-76
2021/11/29 09:25:00;;;;;;;103.60;51.90;;;;;;;-0.13;100.00;97917.28;4901349;29;20044;-76
2021/11/29 09:27:44;;;;;;;65.55;33.17;;;;;;;-0.11;100.00;97915.50;4902691;29;20104;-76
2021/11/29 09:30:28;;;;;;;92.25;42.20;;;;;;;-0.07;100.00;97914.59;4903115;29;20051;-76
2021/11/29 09:33:14;;;;;;;130.20;59.20;;;;;;;-0.15;100.00;97908.69;4901965;29;20053;-76
2021/11/29 09:35:59;;;;;;;58.70;30.67;;;;;;;-0.25;100.00;97900.25;4902029;29;20060;-76
2021/11/29 09:38:43;;;;;;;125.25;59.20;;;;;;;-0.13;100.00;97906.97;4902857;29;20053;-76
2021/11/29 09:41:27;;;;;;;75.55;37.38;;;;;;;-0.04;100.00;97899.09;4902965;29;20430;-76
2021/11/29 09:44:12;;;;;;;81.30;35.40;;;;;;;0.07;100.00;97896.41;4902187;29;20049;-77
2021/11/29 09:46:57;;;;;;;115.05;69.13;;;;;;;0.06;100.00;97886.13;4888952;29;20146;-76
2021/11/29 09:49:41;;;;;;;63.53;31.65;;;;;;;0.10;100.00;97896.38;4902194;29;20068;-76
2021/11/29 09:52:25;;;;;;;128.05;67.07;;;;;;;-0.05;100.00;97891.41;4900172;29;20064;-77
2021/11/29 09:55:12;;;;;;;59.83;35.92;;;;;;;0.02;100.00;97898.19;4899796;29;20449;-77
2021/11/29 09:57:58;;;;;;;50.17;28.45;;;;;;;0.06;100.00;97902.41;4899660;29;20127;-76
2021/11/29 10:00:47;;;;;;;60.20;30.25;;;;;;;-0.08;100.00;97901.75;4899783;29;20041;-77
2021/11/29 10:03:32;;;;;;;47.42;31.77;;;;;;;-0.14;100.00;97901.81;4913077;29;20083;-77
2021/11/29 10:06:16;;;;;;;57.35;34.80;;;;;;;-0.07;100.00;97906.88;4900080;29;20056;-77
2021/11/29 10:09:01;;;;;;;47.85;29.55;;;;;;;-0.02;100.00;97906.81;4886434;29;20044;-77
2021/11/29 10:11:45;;;;;;;71.07;47.30;;;;;;;-0.05;100.00;97906.88;4886326;29;20430;-77
2021/11/29 10:14:30;;;;;;;88.78;64.85;;;;;;;0.08;100.00;97916.13;4899652;29;20041;-77
2021/11/29 10:17:14;;;;;;;166.50;121.55;;;;;;;0.04;100.00;97918.78;4900062;29;20067;-77
2021/11/29 10:19:58;;;;;;;401.95;129.98;;;;;;;0.01;100.00;97914.50;4899979;29;20068;-77
2021/11/29 10:23:16;;;;;;;113.03;63.53;;;;;;;-0.04;100.00;97924.00;4900917;29;20100;-77
2021/11/29 10:26:19;;;;;;;171.65;79.00;;;;;;;-0.08;100.00;97917.19;4857453;29;20067;-76
2021/11/29 10:29:13;;;;;;;78.50;44.33;;;;;;;-0.18;100.00;97925.91;4914311;29;20048;-77
2021/11/29 10:31:58;;;;;;;54.45;28.42;;;;;;;-0.13;100.00;97926.69;4901666;29;20362;-76
2021/11/29 10:34:43;;;;;;;53.40;27.48;;;;;;;-0.25;100.00;97925.97;4901141;29;20477;-77
2021/11/29 10:37:30;;;;;;;241.40;79.63;;;;;;;-0.22;100.00;97919.09;4887698;29;20415;-76
2021/11/29 10:40:16;;;;;;;69.28;33.00;;;;;;;-0.27;100.00;97916.56;4901480;29;20041;-76
2021/11/29 10:43:04;;;;;;;47.28;23.48;;;;;;;-0.26;100.00;97925.97;4914079;29;20116;-77
2021/11/29 10:45:49;;;;;;;151.82;57.20;;;;;;;-0.47;100.00;97904.78;4900889;29;20171;-77
2021/11/29 10:48:33;;;;;;;107.45;45.15;;;;;;;-0.32;100.00;97913.22;4900839;29;20104;-77
2021/11/29 10:51:19;;;;;;;69.57;34.10;;;;;;;-0.21;100.00;97923.38;4900748;29;20354;-76
2021/11/29 10:54:07;;;;;;;75.10;34.45;;;;;;;-0.36;100.00;97925.22;4913922;29;20363;-76
2021/11/29 10:56:55;;;;;;;70.82;33.80;;;;;;;-0.31;100.00;97928.63;4900563;29;20048;-76
2021/11/29 10:59:43;;;;;;;62.78;27.50;;;;;;;-0.43;100.00;97936.47;4901573;29;20045;-76
2021/11/29 11:02:32;;;;;;;56.55;26.80;;;;;;;-0.30;100.00;97934.59;4900845;29;20048;-76
2021/11/29 11:05:16;;;;;;;40.85;21.77;;;;;;;-0.35;100.00;97908.94;4900685;29;20040;-76
2021/11/29 11:08:08;;;;;;;44.67;23.45;;;;;;;-0.36;100.00;97930.38;4887164;29;20052;-76
2021/11/29 11:10:52;;;;;;;49.38;26.00;;;;;;;-0.62;100.00;97935.78;4901123;29;20434;-77
2021/11/29 11:14:05;;;;;;;55.65;28.67;;;;;;;-0.72;100.00;97940.19;4900391;29;20075;-77
2021/11/29 11:16:54;;;;;;;55.33;28.17;;;;;;;-0.73;100.00;97950.50;4887125;29;20096;-77
2021/11/29 11:19:41;;;;;;;55.92;28.27;;;;;;;-0.82;100.00;97955.72;4900854;29;20072;-76
2021/11/29 11:22:41;;;;;;;48.00;25.45;;;;;;;-0.82;100.00;97951.41;4913552;29;20119;-76
2021/11/29 11:25:31;;;;;;;53.33;23.90;;;;;;;-0.80;100.00;97961.72;4901020;29;20067;-76
2021/11/29 11:28:15;;;;;;;55.20;26.92;;;;;;;-0.79;100.00;97955.69;4900126;29;20045;-77
2021/11/29 11:30:59;;;;;;;46.88;23.42;;;;;;;-0.72;100.00;97959.91;4900932;29;20044;-76
2021/11/29 11:33:58;;;;;;;42.63;23.30;;;;;;;-0.78;100.00;97960.84;4900500;29;20049;-77
2021/11/29 11:36:42;;;;;;;43.03;23.30;;;;;;;-0.67;100.00;97953.00;4900070;29;20041;-76
2021/11/29 11:39:27;;;;;;;46.65;26.45;;;;;;;-0.66;100.00;97967.56;4900103;29;20051;-77
2021/11/29 11:42:12;;;;;;;56.22;27.98;;;;;;;-0.60;100.00;97957.22;4900060;29;20051;-77
2021/11/29 11:44:57;;;;;;;59.78;28.10;;;;;;;-0.56;100.00;97969.16;4887160;29;20040;-76
2021/11/29 11:47:44;;;;;;;89.82;41.55;;;;;;;-0.66;100.00;97961.56;4900084;29;20048;-76
2021/11/29 11:50:38;;;;;;;59.47;31.33;;;;;;;-0.65;100.00;97971.84;4903943;29;20056;-77
2021/11/29 11:53:23;;;;;;;44.30;25.08;;;;;;;-0.73;100.00;97973.63;4890934;29;20044;-76
2021/11/29 11:56:07;;;;;;;79.53;38.13;;;;;;;-0.68;100.00;97961.59;4904260;29;20040;-77
2021/11/29 11:59:02;;;;;;;61.30;28.25;;;;;;;-0.62;100.00;97976.94;4917065;29;20437;-77
2021/11/29 12:01:50;;;;;;;39.08;21.85;;;;;;;-0.78;100.00;97970.25;4890404;29;20040;-77
2021/11/29 12:04:34;;;;;;;40.00;22.05;;;;;;;-0.82;100.00;97978.84;4903726;29;20041;-77
2021/11/29 12:07:33;;;;;;;39.17;20.27;;;;;;;-0.85;100.00;97978.88;4904625;29;20108;-77
2021/11/29 12:10:38;;;;;;;35.75;19.45;;;;;;;-0.59;100.00;97978.63;4903441;29;20098;-77
2021/11/29 12:13:26;;;;;;;35.97;18.80;;;;;;;-0.74;100.00;97982.22;4903474;29;20131;-77
2021/11/29 12:16:12;;;;;;;51.13;26.77;;;;;;;-0.85;100.00;97984.00;4903953;29;20052;-77
2021/11/29 12:18:57;;;;;;;35.05;19.20;;;;;;;-0.91;100.00;97989.19;4904161;29;20048;-77
2021/11/29 12:21:42;;;;;;;29.35;17.20;;;;;;;-1.00;100.00;97991.00;4903368;29;20419;-77
2021/11/29 12:24:37;;;;;;;30.27;18.02;;;;;;;-0.99;100.00;97992.69;4903365;29;20104;-77
2021/11/29 12:27:40;;;;;;;52.15;27.98;;;;;;;-0.92;100.00;97995.22;4903472;29;20048;-77
2021/11/29 12:30:42;;;;;;;41.70;19.85;;;;;;;-0.97;100.00;98003.81;4903551;29;20048;-77
2021/11/29 12:33:43;;;;;;;41.05;23.95;;;;;;;-0.92;100.00;98008.91;4903981;29;20049;-76
2021/11/29 12:36:27;;;;;;;30.38;18.95;;;;;;;-0.72;100.00;98006.19;4916236;29;20167;-76